createdAt,value
2018-12-30T00:01:54.935Z,5.60
2018-12-30T00:04:44.684Z,4.40
2018-12-30T00:07:33.549Z,4.00
2018-12-30T00:10:21.731Z,6.53
2018-12-30T00:13:11.187Z,5.00
2018-12-30T00:15:59.573Z,4.13
2018-12-30T00:18:49.617Z,6.03
2018-12-30T00:21:37.920Z,4.80
2018-12-30T00:24:26.928Z,5.40
2018-12-30T00:27:15.869Z,5.40
2018-12-30T00:30:04.742Z,4.57
2018-12-30T00:32:53.647Z,5.13
2018-12-30T00:35:42.251Z,3.87
2018-12-30T00:38:30.714Z,5.40
2018-12-30T00:41:19.430Z,4.57
2018-12-30T00:44:09.442Z,4.13
2018-12-30T00:46:58.450Z,3.70
2018-12-30T00:49:46.438Z,5.57
2018-12-30T00:52:35.764Z,5.27
2018-12-30T00:55:24.375Z,4.40
2018-12-30T00:58:12.361Z,3.70
2018-12-30T01:01:01.460Z,3.90
2018-12-30T01:03:49.341Z,5.27
2018-12-30T01:06:43.269Z,6.33
2018-12-30T01:09:31.919Z,3.90
2018-12-30T01:12:19.844Z,4.57
2018-12-30T01:15:08.018Z,5.07
2018-12-30T01:17:59.123Z,5.30
2018-12-30T01:20:47.299Z,4.20
2018-12-30T01:23:36.134Z,4.00
2018-12-30T01:26:24.878Z,5.27
2018-12-30T01:29:13.715Z,3.97
2018-12-30T01:32:02.883Z,3.80
2018-12-30T01:34:51.434Z,4.33
2018-12-30T01:37:40.166Z,3.57
2018-12-30T01:40:28.549Z,3.87
2018-12-30T01:43:17.230Z,5.53
2018-12-30T01:46:05.731Z,3.60
2018-12-30T01:48:55.368Z,3.60
2018-12-30T01:51:43.830Z,4.10
2018-12-30T01:54:32.611Z,5.50
2018-12-30T01:57:21.045Z,5.83
2018-12-30T02:00:09.995Z,4.00
2018-12-30T02:02:58.274Z,5.03
2018-12-30T02:05:46.746Z,4.90
2018-12-30T02:08:35.390Z,5.27
2018-12-30T02:11:23.838Z,4.57
2018-12-30T02:14:13.368Z,4.03
2018-12-30T02:17:01.576Z,4.60
2018-12-30T02:19:51.559Z,5.67
2018-12-30T02:22:39.526Z,4.13
2018-12-30T02:25:27.382Z,4.60
2018-12-30T02:28:15.738Z,3.93
2018-12-30T02:31:03.487Z,5.10
2018-12-30T02:33:53.634Z,4.17
2018-12-30T02:36:42.707Z,6.10
2018-12-30T02:39:30.890Z,3.83
2018-12-30T02:42:19.711Z,5.03
2018-12-30T02:45:07.967Z,4.80
2018-12-30T02:47:57.703Z,4.23
2018-12-30T02:50:46.572Z,4.43
2018-12-30T02:53:34.973Z,4.83
2018-12-30T02:56:23.863Z,4.03
2018-12-30T02:59:12.619Z,3.53
2018-12-30T03:02:11.597Z,4.80
2018-12-30T03:04:59.407Z,4.33
2018-12-30T03:07:48.437Z,3.93
2018-12-30T03:10:36.254Z,5.30
2018-12-30T03:13:24.910Z,4.70
2018-12-30T03:16:12.830Z,4.23
2018-12-30T03:19:01.632Z,4.30
2018-12-30T03:21:58.955Z,4.10
2018-12-30T03:24:41.049Z,3.97
2018-12-30T03:27:29.304Z,4.07
2018-12-30T03:30:17.029Z,4.50
2018-12-30T03:33:05.380Z,3.90
2018-12-30T03:35:53.669Z,4.00
2018-12-30T03:38:41.891Z,3.50
2018-12-30T03:41:30.464Z,5.60
2018-12-30T03:44:18.870Z,4.43
2018-12-30T03:47:06.844Z,4.40
2018-12-30T03:49:55.837Z,4.20
2018-12-30T03:52:44.354Z,4.00
2018-12-30T03:55:33.658Z,3.97
2018-12-30T03:58:22.147Z,4.13
2018-12-30T04:01:10.538Z,3.63
2018-12-30T04:03:59.703Z,4.20
2018-12-30T04:06:47.896Z,3.20
2018-12-30T04:09:36.391Z,3.70
2018-12-30T04:12:25.558Z,3.77
2018-12-30T04:15:13.899Z,3.80
2018-12-30T04:18:02.612Z,5.10
2018-12-30T04:20:50.519Z,3.90
2018-12-30T04:23:38.711Z,3.70
2018-12-30T04:26:27.211Z,3.40
2018-12-30T04:29:15.274Z,4.33
2018-12-30T04:32:04.259Z,4.30
2018-12-30T04:34:52.193Z,3.03
2018-12-30T04:37:42.771Z,3.33
2018-12-30T04:40:30.834Z,3.27
2018-12-30T04:43:19.732Z,3.63
2018-12-30T04:46:08.032Z,3.17
2018-12-30T04:48:56.315Z,3.50
2018-12-30T04:51:45.007Z,4.20
2018-12-30T04:54:32.880Z,3.60
2018-12-30T04:57:20.906Z,3.87
2018-12-30T05:00:09.467Z,3.80
2018-12-30T05:02:57.816Z,4.30
2018-12-30T05:05:47.129Z,3.93
2018-12-30T05:08:35.822Z,3.67
2018-12-30T05:11:24.574Z,4.30
2018-12-30T05:14:12.623Z,3.90
2018-12-30T05:17:00.982Z,4.67
2018-12-30T05:19:49.066Z,5.20
2018-12-30T05:22:37.691Z,3.47
2018-12-30T05:25:25.698Z,3.73
2018-12-30T05:28:14.291Z,4.80
2018-12-30T05:31:03.663Z,3.47
2018-12-30T05:33:51.875Z,3.57
2018-12-30T05:36:39.998Z,4.27
2018-12-30T05:39:28.980Z,4.37
2018-12-30T05:42:17.566Z,4.30
2018-12-30T05:45:16.644Z,5.07
2018-12-30T05:48:05.805Z,4.63
2018-12-30T05:50:54.343Z,3.53
2018-12-30T05:53:43.390Z,3.27
2018-12-30T05:56:32.088Z,3.90
2018-12-30T05:59:20.787Z,4.40
2018-12-30T06:02:08.405Z,4.57
2018-12-30T06:04:58.223Z,4.20
2018-12-30T06:07:46.666Z,4.00
2018-12-30T06:10:34.907Z,4.20
2018-12-30T06:13:23.402Z,3.80
2018-12-30T06:16:11.826Z,3.77
2018-12-30T06:19:00.642Z,4.83
2018-12-30T06:21:49.263Z,5.80
2018-12-30T06:24:38.352Z,7.67
2018-12-30T06:27:26.826Z,4.60
2018-12-30T06:30:14.870Z,4.57
2018-12-30T06:33:03.382Z,5.33
2018-12-30T06:35:50.796Z,5.50
2018-12-30T06:38:38.798Z,4.50
2018-12-30T06:41:30.436Z,6.77
2018-12-30T06:44:18.374Z,5.60
2018-12-30T06:47:07.865Z,5.83
2018-12-30T06:49:56.676Z,5.30
2018-12-30T06:52:45.487Z,4.70
2018-12-30T06:55:34.200Z,4.53
2018-12-30T06:58:23.086Z,4.60
2018-12-30T07:01:11.122Z,4.50
2018-12-30T07:03:59.970Z,4.97
2018-12-30T07:06:48.610Z,7.00
2018-12-30T07:09:37.354Z,5.70
2018-12-30T07:12:25.634Z,4.20
2018-12-30T07:15:13.880Z,5.20
2018-12-30T07:18:01.554Z,4.53
2018-12-30T07:20:50.426Z,4.33
2018-12-30T07:23:38.217Z,4.13
2018-12-30T07:26:26.773Z,3.60
2018-12-30T07:29:14.667Z,5.17
2018-12-30T07:32:03.098Z,4.13
2018-12-30T07:34:50.914Z,5.70
2018-12-30T07:37:39.553Z,4.60
2018-12-30T07:40:27.430Z,5.30
2018-12-30T07:43:16.417Z,6.00
2018-12-30T07:46:04.223Z,4.77
2018-12-30T07:48:52.242Z,5.67
2018-12-30T07:51:40.595Z,6.00
2018-12-30T07:54:28.387Z,5.43
2018-12-30T07:57:16.101Z,5.17
2018-12-30T08:00:04.346Z,5.23
2018-12-30T08:02:52.446Z,4.60
2018-12-30T08:05:40.766Z,4.40
2018-12-30T08:08:30.011Z,5.67
2018-12-30T08:11:18.198Z,4.50
2018-12-30T08:14:08.008Z,4.30
2018-12-30T08:16:56.222Z,5.10
2018-12-30T08:19:44.870Z,6.00
2018-12-30T08:22:33.658Z,6.30
2018-12-30T08:25:23.188Z,5.77
2018-12-30T08:28:10.918Z,4.77
2018-12-30T08:30:59.538Z,4.20
2018-12-30T08:33:48.232Z,4.13
2018-12-30T08:36:37.215Z,4.93
2018-12-30T08:39:25.466Z,4.40
2018-12-30T08:42:16.001Z,3.90
2018-12-30T08:45:04.224Z,5.07
2018-12-30T08:47:52.734Z,4.00
2018-12-30T08:50:43.709Z,6.03
2018-12-30T08:53:32.527Z,6.17
2018-12-30T08:56:21.071Z,4.37
2018-12-30T08:59:09.859Z,5.53
2018-12-30T09:01:58.250Z,6.37
2018-12-30T09:04:46.010Z,5.30
2018-12-30T09:07:34.794Z,6.10
2018-12-30T09:10:23.583Z,3.50
2018-12-30T09:13:11.375Z,4.63
2018-12-30T09:15:59.147Z,4.37
2018-12-30T09:18:47.811Z,4.30
2018-12-30T09:21:35.642Z,4.60
2018-12-30T09:24:23.922Z,4.43
2018-12-30T09:27:12.102Z,4.90
2018-12-30T09:29:59.871Z,6.40
2018-12-30T09:32:48.054Z,4.80
2018-12-30T09:35:36.627Z,4.30
2018-12-30T09:38:25.466Z,3.97
2018-12-30T09:41:13.531Z,3.63
2018-12-30T09:44:02.139Z,4.03
2018-12-30T09:46:50.591Z,3.73
2018-12-30T09:49:39.057Z,3.17
2018-12-30T09:52:27.655Z,5.20
2018-12-30T09:55:16.910Z,5.40
2018-12-30T09:58:05.093Z,4.30
2018-12-30T10:00:53.812Z,3.60
2018-12-30T10:03:42.651Z,4.33
2018-12-30T10:06:31.334Z,3.50
2018-12-30T10:09:19.754Z,3.43
2018-12-30T10:12:09.155Z,3.80
2018-12-30T10:14:58.077Z,4.67
2018-12-30T10:17:46.382Z,5.30
2018-12-30T10:20:35.151Z,3.70
2018-12-30T10:23:23.357Z,3.80
2018-12-30T10:26:11.834Z,3.77
2018-12-30T10:28:59.660Z,3.27
2018-12-30T10:31:47.951Z,4.00
2018-12-30T10:34:36.467Z,3.37
2018-12-30T10:37:24.710Z,2.83
2018-12-30T10:40:13.452Z,3.40
2018-12-30T10:43:01.177Z,4.90
2018-12-30T10:45:49.378Z,4.63
2018-12-30T10:48:37.647Z,4.20
2018-12-30T10:51:25.702Z,3.83
2018-12-30T10:54:14.417Z,3.70
2018-12-30T10:57:03.071Z,3.73
2018-12-30T10:59:50.872Z,4.00
2018-12-30T11:02:39.350Z,4.03
2018-12-30T11:05:27.360Z,3.93
2018-12-30T11:08:15.682Z,3.03
2018-12-30T11:11:03.983Z,4.67
2018-12-30T11:13:52.698Z,3.90
2018-12-30T11:16:43.620Z,3.53
2018-12-30T11:19:32.162Z,3.80
2018-12-30T11:22:21.247Z,3.77
2018-12-30T11:25:09.538Z,2.87
2018-12-30T11:27:57.807Z,3.43
2018-12-30T11:30:46.447Z,3.40
2018-12-30T11:33:34.390Z,3.63
2018-12-30T11:36:22.438Z,3.67
2018-12-30T11:39:10.787Z,2.63
2018-12-30T11:41:59.249Z,4.03
2018-12-30T11:44:47.511Z,2.80
2018-12-30T11:47:36.027Z,3.53
2018-12-30T11:50:24.728Z,3.30
2018-12-30T11:53:13.377Z,3.27
2018-12-30T11:56:01.378Z,4.40
2018-12-30T11:58:50.154Z,4.60
2018-12-30T12:01:40.784Z,5.60
2018-12-30T12:04:29.238Z,3.33
2018-12-30T12:07:18.811Z,5.33
2018-12-30T12:10:07.490Z,2.97
2018-12-30T12:12:56.007Z,5.40
2018-12-30T12:15:44.089Z,3.10
2018-12-30T12:18:32.018Z,4.60
2018-12-30T12:21:20.539Z,2.87
2018-12-30T12:24:08.819Z,3.60
2018-12-30T12:26:57.118Z,3.10
2018-12-30T12:29:44.934Z,3.20
2018-12-30T12:32:33.392Z,3.10
2018-12-30T12:35:21.314Z,3.30
2018-12-30T12:38:09.958Z,3.03
2018-12-30T12:40:58.218Z,3.20
2018-12-30T12:43:47.067Z,2.50
2018-12-30T12:46:35.520Z,3.13
2018-12-30T12:49:25.322Z,3.20
2018-12-30T12:52:14.006Z,3.43
2018-12-30T12:55:02.555Z,2.60
2018-12-30T12:57:50.986Z,3.17
2018-12-30T13:00:39.827Z,3.40
2018-12-30T13:03:28.783Z,3.40
2018-12-30T13:06:16.691Z,4.63
2018-12-30T13:09:06.995Z,3.40
2018-12-30T13:11:55.382Z,3.40
2018-12-30T13:14:44.090Z,3.10
2018-12-30T13:17:32.333Z,2.80
2018-12-30T13:20:20.831Z,4.13
2018-12-30T13:23:09.568Z,4.23
2018-12-30T13:25:57.466Z,3.33
2018-12-30T13:28:46.543Z,3.30
2018-12-30T13:31:35.628Z,4.23
2018-12-30T13:34:24.074Z,3.73
2018-12-30T13:37:12.366Z,3.77
2018-12-30T13:40:00.798Z,3.70
2018-12-30T13:42:49.085Z,3.23
2018-12-30T13:45:37.859Z,3.93
2018-12-30T13:48:26.892Z,3.90
2018-12-30T13:51:15.938Z,3.97
2018-12-30T13:54:05.584Z,3.57
2018-12-30T13:56:53.679Z,3.27
2018-12-30T13:59:42.383Z,4.80
2018-12-30T14:02:30.754Z,4.90
2018-12-30T14:05:19.403Z,4.40
2018-12-30T14:08:07.767Z,4.13
2018-12-30T14:10:56.210Z,3.97
2018-12-30T14:13:43.790Z,4.00
2018-12-30T14:16:32.333Z,5.70
2018-12-30T14:19:20.716Z,4.53
2018-12-30T14:22:08.935Z,5.80
2018-12-30T14:24:57.499Z,4.73
2018-12-30T14:27:45.410Z,4.60
2018-12-30T14:30:33.666Z,5.40
2018-12-30T14:33:21.657Z,5.10
2018-12-30T14:36:09.546Z,5.70
2018-12-30T14:38:58.139Z,4.10
2018-12-30T14:41:46.851Z,4.40
2018-12-30T14:44:36.130Z,6.53
2018-12-30T14:47:24.402Z,4.23
2018-12-30T14:50:14.563Z,4.80
2018-12-30T14:53:02.909Z,4.90
2018-12-30T14:55:51.259Z,3.90
2018-12-30T14:58:39.471Z,4.80
2018-12-30T15:01:27.923Z,4.07
2018-12-30T15:04:15.918Z,3.70
2018-12-30T15:07:03.978Z,4.33
2018-12-30T15:09:52.622Z,3.67
2018-12-30T15:12:41.002Z,3.73
2018-12-30T15:15:29.566Z,4.60
2018-12-30T15:18:17.338Z,4.43
2018-12-30T15:21:05.947Z,6.03
2018-12-30T15:23:54.810Z,6.80
2018-12-30T15:26:42.874Z,7.57
2018-12-30T15:29:30.386Z,5.97
2018-12-30T15:32:18.098Z,6.90
2018-12-30T15:35:06.413Z,6.90
2018-12-30T15:37:54.766Z,6.23
2018-12-30T15:40:43.558Z,5.27
2018-12-30T15:43:32.246Z,6.20
2018-12-30T15:46:20.839Z,8.07
2018-12-30T15:49:08.839Z,6.60
2018-12-30T15:52:00.230Z,6.83
2018-12-30T15:54:48.710Z,9.53
2018-12-30T15:57:37.498Z,8.00
2018-12-30T16:00:26.288Z,11.57
2018-12-30T16:03:14.747Z,9.10
2018-12-30T16:06:02.962Z,9.67
2018-12-30T16:08:51.386Z,11.53
2018-12-30T16:11:39.407Z,11.33
2018-12-30T16:14:27.499Z,11.80
2018-12-30T16:17:15.950Z,10.83
2018-12-30T16:20:04.732Z,12.60
2018-12-30T16:22:52.514Z,13.10
2018-12-30T16:25:40.778Z,11.90
2018-12-30T16:28:28.842Z,13.10
2018-12-30T16:31:17.301Z,15.20
2018-12-30T16:34:05.654Z,11.90
2018-12-30T16:36:54.038Z,13.73
2018-12-30T16:39:42.619Z,12.63
2018-12-30T16:42:30.831Z,15.77
2018-12-30T16:45:19.442Z,16.67
2018-12-30T16:48:09.602Z,15.57
2018-12-30T16:50:58.386Z,14.00
2018-12-30T16:53:46.646Z,13.60
2018-12-30T16:56:34.705Z,16.43
2018-12-30T16:59:23.150Z,14.80
2018-12-30T17:02:11.734Z,17.80
2018-12-30T17:05:00.287Z,16.30
2018-12-30T17:07:48.951Z,16.40
2018-12-30T17:10:37.943Z,17.43
2018-12-30T17:13:26.446Z,17.83
2018-12-30T17:16:14.785Z,17.83
2018-12-30T17:19:03.787Z,19.80
2018-12-30T17:21:52.278Z,21.33
2018-12-30T17:24:40.869Z,20.50
2018-12-30T17:27:29.458Z,21.47
2018-12-30T17:30:17.473Z,21.27
2018-12-30T17:33:05.861Z,22.17
2018-12-30T17:35:54.655Z,25.23
2018-12-30T17:38:43.575Z,21.10
2018-12-30T17:41:42.436Z,21.30
2018-12-30T17:44:30.426Z,23.03
2018-12-30T17:47:19.058Z,22.93
2018-12-30T17:50:09.476Z,23.80
2018-12-30T17:53:01.136Z,23.87
2018-12-30T17:55:52.487Z,27.00
2018-12-30T17:58:41.824Z,24.60
2018-12-30T18:01:30.885Z,24.80
2018-12-30T18:04:18.989Z,27.73
2018-12-30T18:07:07.760Z,27.83
2018-12-30T18:09:56.015Z,29.93
2018-12-30T18:12:44.583Z,31.77
2018-12-30T18:15:32.386Z,28.90
2018-12-30T18:18:21.514Z,30.97
2018-12-30T18:21:09.532Z,31.57
2018-12-30T18:23:58.106Z,31.70
2018-12-30T18:26:46.707Z,31.10
2018-12-30T18:29:35.147Z,33.80
2018-12-30T18:32:23.646Z,37.93
2018-12-30T18:35:12.196Z,38.07
2018-12-30T18:38:01.640Z,36.57
2018-12-30T18:40:50.774Z,38.50
2018-12-30T18:43:38.614Z,37.47
2018-12-30T18:46:27.274Z,37.57
2018-12-30T18:49:15.891Z,39.10
2018-12-30T18:52:05.123Z,42.10
2018-12-30T18:54:53.090Z,40.40
2018-12-30T18:57:41.642Z,42.60
2018-12-30T19:00:30.323Z,43.57
2018-12-30T19:03:18.501Z,45.10
2018-12-30T19:06:06.283Z,42.73
2018-12-30T19:08:55.878Z,44.07
2018-12-30T19:11:44.342Z,42.63
2018-12-30T19:14:33.518Z,42.90
2018-12-30T19:17:21.754Z,40.57
2018-12-30T19:20:09.955Z,40.33
2018-12-30T19:22:58.158Z,40.00
2018-12-30T19:25:47.446Z,40.70
2018-12-30T19:28:34.955Z,37.80
2018-12-30T19:31:23.251Z,39.50
2018-12-30T19:34:13.071Z,38.50
2018-12-30T19:37:01.312Z,39.87
2018-12-30T19:39:50.502Z,38.77
2018-12-30T19:42:38.802Z,39.63
2018-12-30T19:45:27.569Z,40.73
2018-12-30T19:48:15.514Z,40.40
2018-12-30T19:51:03.749Z,39.33
2018-12-30T19:53:51.925Z,40.37
2018-12-30T19:56:40.698Z,41.67
2018-12-30T19:59:30.516Z,42.80
2018-12-30T20:02:18.737Z,43.03
2018-12-30T20:05:06.946Z,43.33
2018-12-30T20:07:55.387Z,46.47
2018-12-30T20:10:43.387Z,44.20
2018-12-30T20:13:31.650Z,48.57
2018-12-30T20:16:20.086Z,53.53
2018-12-30T20:19:07.826Z,50.37
2018-12-30T20:21:56.588Z,47.17
2018-12-30T20:24:45.225Z,43.10
2018-12-30T20:27:34.295Z,44.27
2018-12-30T20:30:23.045Z,40.43
2018-12-30T20:33:10.953Z,41.87
2018-12-30T20:35:59.771Z,42.40
2018-12-30T20:38:47.899Z,45.00
2018-12-30T20:41:36.154Z,45.13
2018-12-30T20:44:24.595Z,43.20
2018-12-30T20:47:13.069Z,40.53
2018-12-30T20:50:00.940Z,44.00
2018-12-30T20:52:49.417Z,41.87
2018-12-30T20:55:37.837Z,41.07
2018-12-30T20:58:26.335Z,45.80
2018-12-30T21:01:14.192Z,45.80
2018-12-30T21:04:02.706Z,43.30
2018-12-30T21:06:51.840Z,42.70
2018-12-30T21:09:40.533Z,38.90
2018-12-30T21:12:29.984Z,42.17
2018-12-30T21:15:17.793Z,39.73
2018-12-30T21:18:06.700Z,41.07
2018-12-30T21:20:55.294Z,42.40
2018-12-30T21:23:43.820Z,39.17
2018-12-30T21:26:32.475Z,41.30
2018-12-30T21:29:20.617Z,40.97
2018-12-30T21:32:08.666Z,39.53
2018-12-30T21:34:57.683Z,40.43
2018-12-30T21:37:46.423Z,43.30
2018-12-30T21:40:35.906Z,41.93
2018-12-30T21:43:27.462Z,44.07
2018-12-30T21:46:15.514Z,43.90
2018-12-30T21:49:03.832Z,44.33
2018-12-30T21:51:52.210Z,44.67
2018-12-30T21:54:40.684Z,40.83
2018-12-30T21:57:29.127Z,41.90
2018-12-30T22:00:17.926Z,46.70
2018-12-30T22:03:06.689Z,43.57
2018-12-30T22:05:55.666Z,41.23
2018-12-30T22:08:43.914Z,47.20
2018-12-30T22:11:34.863Z,49.10
2018-12-30T22:14:23.631Z,53.87
2018-12-30T22:17:11.818Z,51.50
2018-12-30T22:20:00.839Z,50.90
2018-12-30T22:22:49.530Z,49.43
2018-12-30T22:25:38.205Z,52.37
2018-12-30T22:28:26.298Z,50.60
2018-12-30T22:31:15.098Z,48.90
2018-12-30T22:34:03.822Z,48.20
2018-12-30T22:36:52.458Z,48.63
2018-12-30T22:39:40.579Z,49.47
2018-12-30T22:42:32.935Z,46.77
2018-12-30T22:45:20.708Z,47.20
2018-12-30T22:48:09.654Z,44.27
2018-12-30T22:50:57.641Z,46.20
2018-12-30T22:53:45.474Z,48.70
2018-12-30T22:56:34.247Z,42.80
2018-12-30T22:59:22.227Z,44.13
2018-12-30T23:02:10.798Z,40.93
2018-12-30T23:04:58.742Z,39.83
2018-12-30T23:07:47.876Z,40.63
2018-12-30T23:10:35.946Z,36.40
2018-12-30T23:13:27.635Z,37.00
2018-12-30T23:16:16.162Z,36.07
2018-12-30T23:19:05.156Z,35.50
2018-12-30T23:21:55.168Z,32.97
2018-12-30T23:24:43.687Z,34.67
2018-12-30T23:27:31.776Z,31.40
2018-12-30T23:30:19.998Z,32.17
2018-12-30T23:33:09.198Z,31.57
2018-12-30T23:35:57.654Z,28.67
2018-12-30T23:38:45.542Z,27.03
2018-12-30T23:41:34.046Z,26.90
2018-12-30T23:44:22.450Z,27.73
2018-12-30T23:47:11.142Z,25.00
2018-12-30T23:49:59.755Z,25.97
2018-12-30T23:52:47.686Z,26.40
2018-12-30T23:55:37.014Z,25.47
2018-12-30T23:58:25.433Z,26.20
